Glasco, KS

2:08 PM CDT on September 17, 2014 (GMT -0500)
Salina Municipal | Change Station
CLOSE
Current Station
Airport
Location: Salina,
Elevation: 1286 ft
Nearby Weather Stations

Elev 1286 ft 38.80 °N, 97.65 °W | Updated 15 minutes ago

Mostly Cloudy
Mostly Cloudy
83 °F
Feels Like 85 °F
N
8
Wind Variable Wind from ENE

Today
High -- | Low -- °F
--% Chance of Precip.
Yesterday
High -- | Low -- °F
Precip. -- in
7:14 AM 7:36 PM
Waning Crescent, 34% visible
Pressure 29.85 in
Visibility 10.0 miles
Clouds Clear
Heat Index 85 °F
Dew Point 67 °F
Humidity 58%
Rainfall 0.00 in
Snow Depth Not available.
UV 8 out of 12
Pollen 5.80 out of 12
Air Quality Not available.
Flu Activity Not available.
METAR KSLN 171853Z 06007KT 10SM CLR 28/19 A2988 RMK AO2 SLP107 T02830194

More Conditions Fewer Conditions

Pressure 29.85 in
Visibility 10.0 miles
Clouds Clear
Heat Index 85 °F
Dew Point 67 °F
Humidity 58%
Rainfall 0.00 in
Snow Depth Not available.
UV 8 out of 12
Pollen 5.80 out of 12
Air Quality Not available.
Flu Activity Not available.
METAR KSLN 171853Z 06007KT 10SM CLR 28/19 A2988 RMK AO2 SLP107 T02830194

More Conditions Fewer Conditions

10-Day Weather Forecast

Almanac

Astronomy

Sep. 17, 2014 Rise Set
Actual Time 7:14 AM CDT 7:36 PM CDT
Civil Twilight 6:47 AM CDT 8:03 PM CDT
Nautical Twilight 6:15 AM CDT 8:34 PM CDT
Astronomical Twilight 5:43 AM CDT 9:06 PM CDT
Moon 1:16 AM CDT 3:45 PM CDT
Length of Visible Light 13h 15m
Length of Day
12h 22m
Tomorrow will be 2m 33s shorter.
Waning Crescent, 34% of the Moon is Illuminated
Today
Waning Crescent
Sep 24
New
Oct 1
First Quarter
Oct 8
Full
Oct 15
Last Quarter

Today's Extremes

State Highs State Lows

Community

WunderPhotos

Upload Photos

1,754,127 photos uploaded!

Nearby

Snow Depth

Station Depth Elevation
No new snow has been reported.

Earthquake Activity

City Distance Mag. Time & Date
No recent earthquake activity has been reported nearby.
Minimum magnitude displayed is 2.5.

Coastal Water Temperatures

Place Temperature
No Stations Reporting

Nearby Weather Stations